Terminal Aerodrome Forecast
Issued by NWS

Home | Current Version | Previous Version | Text Only | Print | Product List | Glossary On
Versions: 1 2 3 4 5 6 7 8 9 10 11 12 13 14 15 16 17 18 19 20
000
FTUS41 KCAR 270533
TAFHUL
TAF
KHUL 270533Z 2706/2806 22005KT P6SM SCT250
     FM271500 20009KT P6SM -SHRA BKN050
     FM271800 20011G20KT P6SM -SHRA VCTS SCT030 BKN050CB
     FM280100 20011KT P6SM BKN030
     FM280300 20009KT P6SM SCT008 BKN012=

USA.gov is the U.S. government's official web portal to all federal, state and local government web resources and services.